createdAt,value
2022-08-17T00:01:31.471Z,8.07
2022-08-17T00:04:19.416Z,9.98
2022-08-17T00:06:48.777Z,8.45
2022-08-17T00:09:18.836Z,9.17
2022-08-17T00:12:35.042Z,9.15
2022-08-17T00:14:36.091Z,8.65
2022-08-17T00:17:04.649Z,9.90
2022-08-17T00:19:32.711Z,7.20
2022-08-17T00:22:34.522Z,9.77
2022-08-17T00:24:49.743Z,8.75
2022-08-17T00:27:16.259Z,7.43
2022-08-17T00:29:42.762Z,8.23
2022-08-17T00:33:11.855Z,7.38
2022-08-17T00:34:55.692Z,8.47
2022-08-17T00:37:22.145Z,12.90
2022-08-17T00:39:48.695Z,8.38
2022-08-17T00:42:17.976Z,8.98
2022-08-17T00:44:45.363Z,8.93
2022-08-17T00:47:11.895Z,9.37
2022-08-17T00:49:38.391Z,8.35
2022-08-17T00:52:15.438Z,9.82
2022-08-17T00:54:44.890Z,9.95
2022-08-17T00:57:17.636Z,8.35
2022-08-17T01:00:01.527Z,9.70
2022-08-17T01:02:42.724Z,13.05
2022-08-17T01:05:16.472Z,15.98
2022-08-17T01:07:47.692Z,12.40
2022-08-17T01:10:59.042Z,14.20
2022-08-17T01:13:03.163Z,12.17
2022-08-17T01:15:32.761Z,13.82
2022-08-17T01:18:00.023Z,14.82
2022-08-17T01:20:26.932Z,12.65
2022-08-17T01:22:53.961Z,16.65
2022-08-17T01:25:21.582Z,10.90
2022-08-17T01:27:49.211Z,10.05
2022-08-17T01:30:57.047Z,10.18
2022-08-17T01:33:04.318Z,8.93
2022-08-17T01:35:31.713Z,8.38
2022-08-17T01:37:58.239Z,9.70
2022-08-17T01:40:35.255Z,9.40
2022-08-17T01:43:10.542Z,9.73
2022-08-17T01:45:44.240Z,9.75
2022-08-17T01:48:12.151Z,9.23
2022-08-17T01:50:42.634Z,7.20
2022-08-17T01:53:34.498Z,8.20
2022-08-17T01:56:10.627Z,8.30
2022-08-17T01:58:38.540Z,8.68
2022-08-17T02:01:06.025Z,9.68
2022-08-17T02:03:34.561Z,10.20
2022-08-17T02:06:02.008Z,8.52
2022-08-17T02:08:38.739Z,8.90
2022-08-17T02:11:11.533Z,9.13
2022-08-17T02:13:38.556Z,8.32
2022-08-17T02:16:05.496Z,8.03
2022-08-17T02:18:32.098Z,8.60
2022-08-17T02:20:58.553Z,8.00
2022-08-17T02:23:28.664Z,9.80
2022-08-17T02:25:57.640Z,10.32
2022-08-17T02:28:24.141Z,8.20
2022-08-17T02:31:00.886Z,8.05
2022-08-17T02:33:43.089Z,8.90
2022-08-17T02:36:12.109Z,7.97
2022-08-17T02:38:39.838Z,9.35
2022-08-17T02:41:06.622Z,9.17
2022-08-17T02:43:33.131Z,8.93
2022-08-17T02:45:59.594Z,9.00
2022-08-17T02:48:31.304Z,8.20
2022-08-17T02:50:59.900Z,9.13
2022-08-17T02:53:27.211Z,8.80
2022-08-17T02:55:53.860Z,9.48
2022-08-17T02:58:34.418Z,9.57
2022-08-17T03:01:04.560Z,8.18
2022-08-17T03:03:31.124Z,9.13
2022-08-17T03:05:57.909Z,9.23
2022-08-17T03:08:25.566Z,8.02
2022-08-17T03:10:52.664Z,9.27
2022-08-17T03:13:20.124Z,10.45
2022-08-17T03:15:47.612Z,9.18
2022-08-17T03:18:25.417Z,11.37
2022-08-17T03:20:58.288Z,12.20
2022-08-17T03:23:25.777Z,11.57
2022-08-17T03:25:54.074Z,12.70
2022-08-17T03:28:22.276Z,11.88
2022-08-17T03:30:51.075Z,13.90
2022-08-17T03:33:18.163Z,13.20
2022-08-17T03:35:45.086Z,12.48
2022-08-17T03:38:15.820Z,9.60
2022-08-17T03:40:58.156Z,9.55
2022-08-17T03:43:27.501Z,9.53
2022-08-17T03:46:27.775Z,10.60
2022-08-17T03:49:14.015Z,10.77
2022-08-17T03:51:58.725Z,9.77
2022-08-17T03:54:44.221Z,9.02
2022-08-17T03:57:11.941Z,9.80
2022-08-17T03:59:39.486Z,13.52
2022-08-17T04:02:34.512Z,11.88
2022-08-17T04:05:01.390Z,9.32
2022-08-17T04:07:30.450Z,8.57
2022-08-17T04:09:58.077Z,10.90
2022-08-17T04:12:25.547Z,12.23
2022-08-17T04:14:54.695Z,10.57
2022-08-17T04:17:29.268Z,9.50
2022-08-17T04:19:56.880Z,8.27
2022-08-17T04:22:30.712Z,10.03
2022-08-17T04:25:01.190Z,9.82
2022-08-17T04:27:27.684Z,8.95
2022-08-17T04:29:55.610Z,10.52
2022-08-17T04:32:58.627Z,8.85
2022-08-17T04:35:09.890Z,10.97
2022-08-17T04:37:36.398Z,9.52
2022-08-17T04:40:22.169Z,8.68
2022-08-17T04:43:05.142Z,9.95
2022-08-17T04:45:32.431Z,9.90
2022-08-17T04:48:01.182Z,10.13
2022-08-17T04:50:27.971Z,9.05
2022-08-17T04:52:55.767Z,9.80
2022-08-17T04:55:22.458Z,9.70
2022-08-17T04:57:48.982Z,9.13
2022-08-17T05:00:15.956Z,9.27
2022-08-17T05:02:50.668Z,9.52
2022-08-17T05:05:32.025Z,10.85
2022-08-17T05:08:01.140Z,10.60
2022-08-17T05:10:30.672Z,9.68
2022-08-17T05:13:02.051Z,10.23
2022-08-17T05:15:33.098Z,9.98
2022-08-17T05:18:04.038Z,9.77
2022-08-17T05:20:31.727Z,10.18
2022-08-17T05:23:01.978Z,11.82
2022-08-17T05:25:34.420Z,9.33
2022-08-17T05:28:02.850Z,9.75
2022-08-17T05:30:29.422Z,8.00
2022-08-17T05:33:08.655Z,22.77
2022-08-17T05:35:37.945Z,27.00
2022-08-17T05:38:05.199Z,10.50
2022-08-17T05:40:32.777Z,10.20
2022-08-17T05:43:12.079Z,10.68
2022-08-17T05:45:55.279Z,9.60
2022-08-17T05:48:35.464Z,9.32
2022-08-17T05:51:28.574Z,9.07
2022-08-17T05:54:21.303Z,10.38
2022-08-17T05:57:05.469Z,9.75
2022-08-17T05:59:50.177Z,9.50
2022-08-17T06:02:45.584Z,10.18
2022-08-17T06:05:51.591Z,7.87
2022-08-17T06:08:23.803Z,9.05
2022-08-17T06:11:20.053Z,10.20
2022-08-17T06:14:18.829Z,11.32
2022-08-17T06:16:55.042Z,10.07
2022-08-17T06:19:40.799Z,8.67
2022-08-17T06:22:11.974Z,9.70
2022-08-17T06:24:51.414Z,9.50
2022-08-17T06:27:41.067Z,9.15
2022-08-17T06:30:12.589Z,9.75
2022-08-17T06:32:43.607Z,8.57
2022-08-17T06:35:18.463Z,10.23
2022-08-17T06:38:04.162Z,11.07
2022-08-17T06:40:50.353Z,9.90
2022-08-17T06:43:48.167Z,8.38
2022-08-17T06:46:35.094Z,7.87
2022-08-17T06:49:26.265Z,9.25
2022-08-17T06:52:00.663Z,8.75
2022-08-17T06:54:39.651Z,7.90
2022-08-17T06:57:29.043Z,7.53
2022-08-17T07:00:04.735Z,6.67
2022-08-17T07:02:58.234Z,6.95
2022-08-17T07:05:32.134Z,7.13
2022-08-17T07:08:07.183Z,6.95
2022-08-17T07:10:44.044Z,8.05
2022-08-17T07:13:30.806Z,6.37
2022-08-17T07:16:15.563Z,5.85
2022-08-17T07:18:43.819Z,6.35
2022-08-17T07:21:26.815Z,6.35
2022-08-17T07:24:29.805Z,6.75
2022-08-17T07:27:04.924Z,8.63
2022-08-17T07:29:35.123Z,8.55
2022-08-17T07:32:01.575Z,6.03
2022-08-17T07:34:29.160Z,7.75
2022-08-17T07:37:05.466Z,8.20
2022-08-17T07:39:31.975Z,7.43
2022-08-17T07:42:03.977Z,6.18
2022-08-17T07:44:30.523Z,6.00
2022-08-17T07:47:23.439Z,8.43
2022-08-17T07:49:49.959Z,7.32
2022-08-17T07:52:50.965Z,6.83
2022-08-17T07:55:35.401Z,6.65
2022-08-17T07:58:03.369Z,7.97
2022-08-17T08:00:32.090Z,6.13
2022-08-17T08:03:31.880Z,7.75
2022-08-17T08:06:03.054Z,5.60
2022-08-17T08:08:43.298Z,7.38
2022-08-17T08:11:27.897Z,4.95
2022-08-17T08:13:54.423Z,7.40
2022-08-17T08:16:29.217Z,5.63
2022-08-17T08:18:59.098Z,7.27
2022-08-17T08:21:31.406Z,8.88
2022-08-17T08:24:30.092Z,7.03
2022-08-17T08:27:37.604Z,6.43
2022-08-17T08:30:18.487Z,8.13
2022-08-17T08:33:23.582Z,6.77
2022-08-17T08:35:58.956Z,9.30
2022-08-17T08:38:32.839Z,6.20
2022-08-17T08:41:21.275Z,7.15
2022-08-17T08:44:06.801Z,6.88
2022-08-17T08:47:29.644Z,5.87
2022-08-17T08:50:37.086Z,7.13
2022-08-17T08:53:32.085Z,6.38
2022-08-17T08:56:53.751Z,7.15
2022-08-17T08:59:45.196Z,6.35
2022-08-17T09:02:46.975Z,7.30
2022-08-17T09:05:29.238Z,7.22
2022-08-17T09:08:07.793Z,6.57
2022-08-17T09:10:52.221Z,7.22
2022-08-17T09:13:46.175Z,10.05
2022-08-17T09:16:33.276Z,7.33
2022-08-17T09:19:11.757Z,7.53
2022-08-17T09:21:52.663Z,5.93
2022-08-17T09:24:40.080Z,11.98
2022-08-17T09:27:13.442Z,6.10
2022-08-17T09:29:47.800Z,7.03
2022-08-17T09:32:20.203Z,6.88
2022-08-17T09:35:00.004Z,6.97
2022-08-17T09:38:17.099Z,7.95
2022-08-17T09:41:01.645Z,9.20
2022-08-17T09:43:56.687Z,5.97
2022-08-17T09:46:43.544Z,7.45
2022-08-17T09:49:15.001Z,7.63
2022-08-17T09:51:48.706Z,5.68
2022-08-17T09:54:41.764Z,6.45
2022-08-17T09:57:31.067Z,7.00
2022-08-17T10:00:16.747Z,8.48
2022-08-17T10:03:02.613Z,6.22
2022-08-17T10:05:39.374Z,6.55
2022-08-17T10:08:27.700Z,6.32
2022-08-17T10:11:18.996Z,8.27
2022-08-17T10:13:54.668Z,6.20
2022-08-17T10:16:41.121Z,5.75
2022-08-17T10:19:16.874Z,6.63
2022-08-17T10:22:32.559Z,5.40
2022-08-17T10:25:22.115Z,7.07
2022-08-17T10:28:05.803Z,7.00
2022-08-17T10:30:43.744Z,5.50
2022-08-17T10:33:20.483Z,5.72
2022-08-17T10:36:18.968Z,6.07
2022-08-17T10:39:05.151Z,7.13
2022-08-17T10:41:40.479Z,7.20
2022-08-17T10:44:38.694Z,5.88
2022-08-17T10:47:11.675Z,6.60
2022-08-17T10:49:48.035Z,6.25
2022-08-17T10:52:20.793Z,5.53
2022-08-17T10:55:06.367Z,5.00
2022-08-17T10:57:34.694Z,6.97
2022-08-17T11:00:10.267Z,6.90
2022-08-17T11:02:45.764Z,7.38
2022-08-17T11:05:12.259Z,6.27
2022-08-17T11:07:43.869Z,5.68
2022-08-17T11:10:52.277Z,4.93
2022-08-17T11:13:30.827Z,6.20
2022-08-17T11:16:39.067Z,6.78
2022-08-17T11:19:17.715Z,6.87
2022-08-17T11:22:03.932Z,5.55
2022-08-17T11:24:43.490Z,5.40
2022-08-17T11:27:35.378Z,5.50
2022-08-17T11:30:10.914Z,5.30
2022-08-17T11:32:48.097Z,4.93
2022-08-17T11:35:21.527Z,7.32
2022-08-17T11:38:14.069Z,7.07
2022-08-17T11:41:08.387Z,4.90
2022-08-17T11:43:59.080Z,6.95
2022-08-17T11:47:28.614Z,5.83
2022-08-17T11:50:28.385Z,5.05
2022-08-17T11:52:55.084Z,6.63
2022-08-17T11:55:38.479Z,6.30
2022-08-17T11:58:30.078Z,5.85
2022-08-17T12:01:02.010Z,5.03
2022-08-17T12:03:34.565Z,6.32
2022-08-17T12:06:19.511Z,4.75
2022-08-17T12:08:55.345Z,6.72
2022-08-17T12:11:55.542Z,6.25
2022-08-17T12:15:08.418Z,7.80
2022-08-17T12:17:41.070Z,5.00
2022-08-17T12:20:22.221Z,5.47
2022-08-17T12:23:14.758Z,4.65
2022-08-17T12:25:45.310Z,4.75
2022-08-17T12:28:32.428Z,7.43
2022-08-17T12:31:11.736Z,5.28
2022-08-17T12:33:43.701Z,5.95
2022-08-17T12:36:15.177Z,5.78
2022-08-17T12:38:50.950Z,6.55
2022-08-17T12:41:30.457Z,6.33
2022-08-17T12:44:23.300Z,5.95
2022-08-17T12:46:55.843Z,4.70
2022-08-17T12:49:28.914Z,5.32
2022-08-17T12:52:17.151Z,4.95
2022-08-17T12:54:59.530Z,5.33
2022-08-17T12:57:39.866Z,6.47
2022-08-17T13:00:17.457Z,5.28
2022-08-17T13:03:07.861Z,5.70
2022-08-17T13:05:40.975Z,4.97
2022-08-17T13:08:18.679Z,5.20
2022-08-17T13:10:55.693Z,5.63
2022-08-17T13:13:31.638Z,6.75
2022-08-17T13:16:20.563Z,6.80
2022-08-17T13:18:54.831Z,4.95
2022-08-17T13:21:26.988Z,7.00
2022-08-17T13:24:08.282Z,6.35
2022-08-17T13:26:40.237Z,7.43
2022-08-17T13:29:19.402Z,5.13
2022-08-17T13:31:52.682Z,4.85
2022-08-17T13:34:26.950Z,6.03
2022-08-17T13:37:32.804Z,6.38
2022-08-17T13:40:11.456Z,5.13
2022-08-17T13:42:52.940Z,5.90
2022-08-17T13:45:38.868Z,6.13
2022-08-17T13:48:11.957Z,6.23
2022-08-17T13:50:45.183Z,5.55
2022-08-17T13:53:26.476Z,5.07
2022-08-17T13:56:01.562Z,5.07
2022-08-17T13:58:35.204Z,4.47
2022-08-17T14:01:35.583Z,5.90
2022-08-17T14:04:05.872Z,6.28
2022-08-17T14:06:52.929Z,5.13
2022-08-17T14:09:24.071Z,5.25
2022-08-17T14:11:51.497Z,5.43
2022-08-17T14:14:18.726Z,5.07
2022-08-17T14:16:45.266Z,5.15
2022-08-17T14:19:14.449Z,5.35
2022-08-17T14:21:43.755Z,5.78
2022-08-17T14:24:19.807Z,5.85
2022-08-17T14:26:46.672Z,5.43
2022-08-17T14:29:15.362Z,7.30
2022-08-17T14:31:42.274Z,5.85
2022-08-17T14:34:15.313Z,5.10
2022-08-17T14:36:48.451Z,5.32
2022-08-17T14:39:16.687Z,5.80
2022-08-17T14:41:43.723Z,5.30
2022-08-17T14:44:13.593Z,5.18
2022-08-17T14:46:41.564Z,8.88
2022-08-17T14:49:10.913Z,6.82
2022-08-17T14:51:43.487Z,5.67
2022-08-17T14:54:11.068Z,5.93
2022-08-17T14:56:38.676Z,6.88
2022-08-17T14:59:05.489Z,6.57
2022-08-17T15:01:33.024Z,8.18
2022-08-17T15:04:00.979Z,5.70
2022-08-17T15:06:27.516Z,4.50
2022-08-17T15:08:54.491Z,6.03
2022-08-17T15:11:21.026Z,6.40
2022-08-17T15:13:52.692Z,7.75
2022-08-17T15:16:20.522Z,5.50
2022-08-17T15:18:47.159Z,5.25
2022-08-17T15:21:14.857Z,5.47
2022-08-17T15:23:41.425Z,7.28
2022-08-17T15:26:10.758Z,5.93
2022-08-17T15:28:37.791Z,7.03
2022-08-17T15:31:06.119Z,4.82
2022-08-17T15:33:32.686Z,6.15
2022-08-17T15:36:01.794Z,5.85
2022-08-17T15:38:28.873Z,9.18
2022-08-17T15:40:57.661Z,6.70
2022-08-17T15:43:32.599Z,5.13
2022-08-17T15:46:12.427Z,5.45
2022-08-17T15:48:41.899Z,6.07
2022-08-17T15:51:11.170Z,5.80
2022-08-17T15:53:39.135Z,5.10
2022-08-17T15:56:07.210Z,4.97
2022-08-17T15:58:34.955Z,8.98
2022-08-17T16:01:14.727Z,10.90
2022-08-17T16:04:04.577Z,24.58
2022-08-17T16:06:32.887Z,10.23
2022-08-17T16:09:00.513Z,7.10
2022-08-17T16:11:27.087Z,11.32
2022-08-17T16:13:54.969Z,8.68
2022-08-17T16:16:23.706Z,8.80
2022-08-17T16:18:53.547Z,6.40
2022-08-17T16:21:26.098Z,6.88
2022-08-17T16:24:12.695Z,10.00
2022-08-17T16:26:41.890Z,7.57
2022-08-17T16:29:08.743Z,6.65
2022-08-17T16:31:37.582Z,7.20
2022-08-17T16:34:17.899Z,6.35
2022-08-17T16:36:54.658Z,8.43
2022-08-17T16:39:24.377Z,7.22
2022-08-17T16:41:50.877Z,5.07
2022-08-17T16:44:21.044Z,7.33
2022-08-17T16:46:48.948Z,6.80
2022-08-17T16:49:31.581Z,5.32
2022-08-17T16:52:04.321Z,6.50
2022-08-17T16:54:30.980Z,6.60
2022-08-17T16:56:57.466Z,6.77
2022-08-17T16:59:31.195Z,6.45
2022-08-17T17:02:10.934Z,5.55
2022-08-17T17:04:50.462Z,5.95
2022-08-17T17:07:32.265Z,6.00
2022-08-17T17:10:15.903Z,7.20
2022-08-17T17:13:03.923Z,7.63
2022-08-17T17:15:42.685Z,6.88
2022-08-17T17:18:13.409Z,8.85
2022-08-17T17:21:01.184Z,8.40
2022-08-17T17:23:45.339Z,8.67
2022-08-17T17:26:28.022Z,8.38
2022-08-17T17:29:09.415Z,10.57
2022-08-17T17:31:45.175Z,7.20
2022-08-17T17:34:15.880Z,7.15
2022-08-17T17:36:48.539Z,6.47
2022-08-17T17:39:31.854Z,7.38
2022-08-17T17:42:02.681Z,7.35
2022-08-17T17:44:49.747Z,10.15
2022-08-17T17:47:16.432Z,9.48
2022-08-17T17:49:45.992Z,8.03
2022-08-17T17:52:41.026Z,11.90
2022-08-17T17:55:23.163Z,14.77
2022-08-17T17:57:49.883Z,14.85
2022-08-17T18:00:22.006Z,14.80
2022-08-17T18:03:39.654Z,11.77
2022-08-17T18:06:18.726Z,9.82
2022-08-17T18:09:15.626Z,19.45
2022-08-17T18:12:06.514Z,16.10
2022-08-17T18:14:54.242Z,13.93
2022-08-17T18:17:20.797Z,12.47
2022-08-17T18:19:48.298Z,11.80
2022-08-17T18:22:22.204Z,14.10
2022-08-17T18:24:56.055Z,10.85
2022-08-17T18:27:25.442Z,7.38
2022-08-17T18:29:54.869Z,7.07
2022-08-17T18:32:26.872Z,10.85
2022-08-17T18:35:15.248Z,11.30
2022-08-17T18:37:46.863Z,10.20
2022-08-17T18:40:16.430Z,11.27
2022-08-17T18:42:58.967Z,10.10
2022-08-17T18:45:40.784Z,11.45
2022-08-17T18:48:33.442Z,15.25
2022-08-17T18:51:20.333Z,11.70
2022-08-17T18:54:14.505Z,10.93
2022-08-17T18:56:51.272Z,11.17
2022-08-17T18:59:29.891Z,7.78
2022-08-17T19:01:59.182Z,8.10
2022-08-17T19:04:34.603Z,8.25
2022-08-17T19:07:25.666Z,13.43
2022-08-17T19:10:08.877Z,9.13
2022-08-17T19:13:12.580Z,8.93
2022-08-17T19:16:11.716Z,7.65
2022-08-17T19:18:38.990Z,10.70
2022-08-17T19:21:30.662Z,11.50
2022-08-17T19:24:07.062Z,10.00
2022-08-17T19:26:53.715Z,8.75
2022-08-17T19:29:42.214Z,8.32
2022-08-17T19:32:10.582Z,10.45
2022-08-17T19:34:39.349Z,9.43
2022-08-17T19:37:17.594Z,9.00
2022-08-17T19:39:50.104Z,10.73
2022-08-17T19:42:41.226Z,7.97
2022-08-17T19:45:24.281Z,9.35
2022-08-17T19:48:15.410Z,11.32
2022-08-17T19:51:20.475Z,9.20
2022-08-17T19:54:06.231Z,10.90
2022-08-17T19:56:57.276Z,10.70
2022-08-17T19:59:48.871Z,14.35
2022-08-17T20:02:20.632Z,7.10
2022-08-17T20:04:50.521Z,12.30
2022-08-17T20:07:40.487Z,8.43
2022-08-17T20:10:12.991Z,9.00
2022-08-17T20:12:44.560Z,8.68
2022-08-17T20:15:27.196Z,7.55
2022-08-17T20:17:58.700Z,9.23
2022-08-17T20:20:47.066Z,8.40
2022-08-17T20:23:49.026Z,8.07
2022-08-17T20:26:21.955Z,7.88
2022-08-17T20:29:13.923Z,10.60
2022-08-17T20:32:13.464Z,9.33
2022-08-17T20:34:40.017Z,8.60
2022-08-17T20:37:15.645Z,7.78
2022-08-17T20:40:05.753Z,8.05
2022-08-17T20:42:33.928Z,7.95
2022-08-17T20:45:21.743Z,7.63
2022-08-17T20:48:18.477Z,9.20
2022-08-17T20:50:43.999Z,9.13
2022-08-17T20:53:15.037Z,7.63
2022-08-17T20:55:51.659Z,8.15
2022-08-17T20:58:42.120Z,7.40
2022-08-17T21:01:16.120Z,9.80
2022-08-17T21:03:50.613Z,9.00
2022-08-17T21:06:21.042Z,9.75
2022-08-17T21:08:53.883Z,10.77
2022-08-17T21:12:03.351Z,8.20
2022-08-17T21:14:26.747Z,8.45
2022-08-17T21:17:18.555Z,7.38
2022-08-17T21:20:22.925Z,16.83
2022-08-17T21:22:55.552Z,7.90
2022-08-17T21:25:40.359Z,7.17
2022-08-17T21:28:10.715Z,8.43
2022-08-17T21:30:39.131Z,7.18
2022-08-17T21:33:20.160Z,7.28
2022-08-17T21:35:59.090Z,7.93
2022-08-17T21:38:41.728Z,7.17
2022-08-17T21:41:20.602Z,8.32
2022-08-17T21:43:50.310Z,6.70
2022-08-17T21:46:29.019Z,7.15
2022-08-17T21:49:02.677Z,10.23
2022-08-17T21:51:40.972Z,8.13
2022-08-17T21:54:25.264Z,7.45
2022-08-17T21:56:52.215Z,8.13
2022-08-17T21:59:19.457Z,8.65
2022-08-17T22:01:57.647Z,9.70
2022-08-17T22:04:42.143Z,6.77
2022-08-17T22:07:11.850Z,6.97
2022-08-17T22:09:47.828Z,8.38
2022-08-17T22:12:20.103Z,9.57
2022-08-17T22:14:54.184Z,9.05
2022-08-17T22:17:27.146Z,7.77
2022-08-17T22:20:14.450Z,8.13
2022-08-17T22:23:08.720Z,10.02
2022-08-17T22:25:40.727Z,9.55
2022-08-17T22:28:09.779Z,7.53
2022-08-17T22:30:58.712Z,8.23
2022-08-17T22:33:37.024Z,9.73
2022-08-17T22:36:29.867Z,9.85
2022-08-17T22:38:58.683Z,8.88
2022-08-17T22:41:31.998Z,7.85
2022-08-17T22:44:07.291Z,9.03
2022-08-17T22:46:39.531Z,9.15
2022-08-17T22:49:06.538Z,8.45
2022-08-17T22:51:33.270Z,8.73
2022-08-17T22:54:35.293Z,10.63
2022-08-17T22:57:22.719Z,11.30
2022-08-17T22:59:52.695Z,11.10
2022-08-17T23:02:23.779Z,8.57
2022-08-17T23:05:10.128Z,10.02
2022-08-17T23:07:36.879Z,12.07
2022-08-17T23:10:06.474Z,11.03
2022-08-17T23:12:38.912Z,9.88
2022-08-17T23:15:12.657Z,9.13
2022-08-17T23:17:39.240Z,10.98
2022-08-17T23:20:09.129Z,9.85
2022-08-17T23:22:38.082Z,10.80
2022-08-17T23:25:27.256Z,9.60
2022-08-17T23:27:54.457Z,10.38
2022-08-17T23:30:21.404Z,11.75
2022-08-17T23:32:53.890Z,11.52
2022-08-17T23:35:39.405Z,9.53
2022-08-17T23:38:07.603Z,12.82
2022-08-17T23:40:34.524Z,15.45
2022-08-17T23:43:01.029Z,14.15
2022-08-17T23:45:32.517Z,11.48
2022-08-17T23:47:58.974Z,13.30
2022-08-17T23:50:25.473Z,13.23
2022-08-17T23:52:57.705Z,15.13
2022-08-17T23:55:24.211Z,13.82
2022-08-17T23:57:50.865Z,15.20
